KBAB/BAB METAR and TAF weather

Enter ICAO airport designator
Station Type Date Time Source
KBAB METAR 2022/07/03 14:43 UTC NOAA

KBAB 031443Z AUTO 16013KT 10SM BKN017 16/10 A2992 RMK AO2 CIG 016 RWY33 SLP134 $


Station Type Date Time Source
KBAB Decoded METAR 2022/07/03 14:43 UTC NOAA

Marysville, Beale Air Force Base, CA, United States (KBAB) 39-08N 121-26W
Jul 03, 2022 - 10:43 AM EDT / 2022.07.03 1443 UTC
Wind: from the SSE (160 degrees) at 15 MPH (13 KT):0
Visibility: 10 mile(s):0
Sky conditions: mostly cloudy
Temperature: 60 F (16 C)
Dew Point: 50 F (10 C)
Relative Humidity: 67%
Pressure (altimeter): 29.92 in. Hg (1013 hPa)
ob: KBAB 031443Z AUTO 16013KT 10SM BKN017 16/10 A2992 RMK AO2 CIG 016 RWY33 SLP134
cycle: 14

Station Type Date Time Source
KBAB TAF 2022/07/02 16:42 UTC NOAA

TAF TAF
AMD KBAB 021630Z 0216/0317 14010KT 9999 SKC QNH2986INS
BECMG 0220/0221 17010G15KT 9999 SKC QNH2980INS
BECMG 0302/0303 15012G18KT 9999 SKC QNH2980INS
BECMG 0311/0312 15012KT 9999 BKN015 QNH2989INS TX29/0223Z TN12/0311Z LAST NO
AMDS AFT 0216 NEXT 0512

Example: see airport list